Aérodrome :
LOGIN :

S'inscrire | Disclaimer

   EN    FR    IT 

 










Légende :    VFR   VFR Marginal   IFR   IFR Intensif   IFR Très Intensif
Visi : 
Plafond : 
>= 8 km
>= 3000ft
5 à 8 km
1000 à 3000 ft
1500m à 5 km
500 à 1000 ft
800 à 1500m
200 à 500 ft
< 800m
< 200 ft
Symboles :   Orages  Brouillard  Fortes neiges  Fortes précipitations  Vent > 20 kt
SIGMETs :   Divers  Orages  Givrage  Turbulence  Onde Orograph.  Cendres Volcan.







- Altitude de l'aérodrome : 364 ft
- Voir les cartes d'approche


LFAQ - Albert Bray

DERNIER METAR :
  • 231400Z AUTO 31006KT 270V360 CAVOK 21/08 Q1027 NOSIG

METARs EXPIRÉS :
  • 231330Z AUTO 31005KT 250V040 CAVOK 21/07 Q1027 NOSIG
  • 231300Z AUTO 34005KT 270V040 CAVOK 20/08 Q1028 NOSIG
  • 231230Z AUTO 35006KT 320V040 CAVOK 20/08 Q1028 NOSIG
  • 231200Z AUTO 35006KT 320V030 CAVOK 19/07 Q1028 NOSIG
  • 231130Z AUTO 36005KT 300V060 CAVOK 19/08 Q1029 NOSIG

TAF TAF LFAQ
Valide du 23 à 12h jusqu'au 23 à 21h UTC


231100Z 2312/2321 04005KT CAVOK
Pas de NOTAMs connus pour ce terrain.



MET'MAP, la Météo Aéronautique d'un coup d'oeil ! - Copyright ORBIFLY Décembre 2007 - Disclaimer

ORBIFLY MET'MAP TEAM :

Programmation & Développement : Alexandra Zaïnal
Conception & Développement : Baudouin d'Aumeries
Co-Programmation & Développement : Marc-Olivier Méhu
Soutien technique & logistique : Manuel Goepfert

Contact : metmap@orbifly.com




SOURCES & CREDITS :

   NOAA